createdAt,value
2019-02-26T00:00:42.295Z,81.80
2019-02-26T00:01:38.432Z,81.59
2019-02-26T00:02:38.447Z,81.11
2019-02-26T00:03:38.420Z,80.80
2019-02-26T00:04:38.394Z,80.80
2019-02-26T00:05:38.423Z,80.38
2019-02-26T00:06:38.662Z,80.80
2019-02-26T00:07:38.362Z,81.01
2019-02-26T00:08:38.349Z,81.25
2019-02-26T00:09:38.356Z,81.15
2019-02-26T00:10:39.069Z,81.25
2019-02-26T00:11:40.154Z,81.15
2019-02-26T00:12:38.349Z,81.67
2019-02-26T00:13:38.293Z,81.46
2019-02-26T00:14:38.286Z,81.46
2019-02-26T00:15:40.435Z,81.46
2019-02-26T00:16:39.982Z,82.29
2019-02-26T00:17:40.519Z,82.74
2019-02-26T00:18:38.275Z,83.58
2019-02-26T00:19:38.232Z,83.05
2019-02-26T00:20:39.667Z,83.58
2019-02-26T00:21:38.211Z,83.26
2019-02-26T00:22:38.967Z,83.47
2019-02-26T00:23:38.206Z,84.41
2019-02-26T00:24:39.840Z,83.68
2019-02-26T00:25:38.171Z,83.78
2019-02-26T00:26:39.057Z,83.68
2019-02-26T00:27:38.146Z,83.78
2019-02-26T00:28:39.146Z,84.09
2019-02-26T00:29:38.131Z,83.68
2019-02-26T00:30:40.258Z,83.78
2019-02-26T00:31:38.100Z,83.68
2019-02-26T00:32:40.053Z,83.68
2019-02-26T00:33:38.105Z,84.23
2019-02-26T00:34:39.100Z,84.20
2019-02-26T00:35:39.878Z,83.78
2019-02-26T00:36:38.241Z,83.92
2019-02-26T00:37:38.054Z,83.92
2019-02-26T00:38:39.858Z,84.23
2019-02-26T00:39:38.043Z,83.72
2019-02-26T00:40:39.310Z,83.72
2019-02-26T00:41:40.139Z,83.61
2019-02-26T00:42:38.163Z,84.13
2019-02-26T00:43:38.016Z,84.03
2019-02-26T00:44:37.954Z,84.44
2019-02-26T00:45:39.118Z,84.44
2019-02-26T00:46:39.461Z,84.09
2019-02-26T00:47:38.800Z,84.41
2019-02-26T00:48:40.250Z,84.16
2019-02-26T00:49:37.928Z,84.37
2019-02-26T00:50:39.729Z,83.95
2019-02-26T00:51:39.836Z,84.05
2019-02-26T00:52:39.168Z,84.05
2019-02-26T00:53:37.855Z,83.29
2019-02-26T00:54:37.883Z,82.67
2019-02-26T00:55:39.643Z,82.77
2019-02-26T00:56:38.711Z,82.53
2019-02-26T00:57:38.810Z,82.15
2019-02-26T00:58:39.230Z,82.15
2019-02-26T00:59:38.866Z,82.25
2019-02-26T01:00:37.821Z,82.15
2019-02-26T01:01:37.784Z,82.25
2019-02-26T01:02:37.778Z,82.04
2019-02-26T01:03:37.747Z,82.15
2019-02-26T01:04:39.086Z,82.15
2019-02-26T01:05:39.175Z,82.21
2019-02-26T01:06:37.781Z,82.21
2019-02-26T01:07:37.712Z,82.63
2019-02-26T01:08:38.392Z,83.08
2019-02-26T01:09:37.680Z,82.94
2019-02-26T01:10:39.797Z,83.15
2019-02-26T01:11:37.674Z,82.77
2019-02-26T01:12:40.124Z,82.77
2019-02-26T01:13:37.636Z,82.67
2019-02-26T01:14:39.169Z,83.39
2019-02-26T01:15:37.616Z,84.01
2019-02-26T01:16:39.385Z,83.98
2019-02-26T01:17:39.592Z,83.98
2019-02-26T01:18:37.645Z,82.87
2019-02-26T01:19:38.670Z,83.67
2019-02-26T01:20:37.578Z,83.67
2019-02-26T01:21:37.952Z,83.15
2019-02-26T01:22:38.270Z,83.15
2019-02-26T01:23:37.530Z,83.91
2019-02-26T01:24:37.599Z,84.29
2019-02-26T01:25:38.771Z,83.67
2019-02-26T01:26:37.507Z,83.67
2019-02-26T01:27:37.486Z,83.29
2019-02-26T01:28:39.582Z,82.94
2019-02-26T01:29:37.461Z,82.73
2019-02-26T01:30:37.499Z,82.42
2019-02-26T01:31:37.487Z,82.32
2019-02-26T01:32:37.456Z,82.18
2019-02-26T01:33:37.414Z,81.35
2019-02-26T01:34:38.277Z,81.45
2019-02-26T01:35:37.855Z,80.93
2019-02-26T01:36:38.223Z,80.58
2019-02-26T01:37:37.375Z,80.68
2019-02-26T01:38:39.414Z,80.62
2019-02-26T01:39:38.340Z,80.62
2019-02-26T01:40:39.406Z,79.90
2019-02-26T01:41:41.394Z,80.83
2019-02-26T01:42:38.367Z,80.97
2019-02-26T01:43:37.315Z,80.66
2019-02-26T01:44:38.237Z,80.97
2019-02-26T01:45:37.292Z,80.87
2019-02-26T01:46:38.886Z,80.87
2019-02-26T01:47:37.265Z,81.18
2019-02-26T01:48:38.959Z,80.90
2019-02-26T01:49:37.243Z,80.97
2019-02-26T01:50:37.957Z,80.90
2019-02-26T01:51:37.226Z,80.97
2019-02-26T01:52:37.233Z,81.38
2019-02-26T01:53:37.217Z,81.52
2019-02-26T01:54:39.185Z,81.52
2019-02-26T01:55:39.317Z,81.94
2019-02-26T01:56:37.168Z,82.56
2019-02-26T01:57:37.165Z,82.29
2019-02-26T01:58:37.144Z,82.18
2019-02-26T01:59:37.139Z,82.50
2019-02-26T02:00:38.674Z,82.81
2019-02-26T02:01:40.050Z,82.60
2019-02-26T02:02:38.100Z,82.39
2019-02-26T02:03:37.089Z,82.60
2019-02-26T02:04:39.336Z,82.50
2019-02-26T02:05:37.071Z,82.64
2019-02-26T02:06:39.097Z,83.68
2019-02-26T02:07:37.045Z,83.37
2019-02-26T02:08:39.349Z,83.05
2019-02-26T02:09:37.028Z,83.78
2019-02-26T02:10:37.029Z,84.23
2019-02-26T02:11:38.118Z,84.20
2019-02-26T02:12:39.138Z,84.13
2019-02-26T02:13:38.624Z,84.30
2019-02-26T02:14:37.019Z,84.03
2019-02-26T02:15:37.913Z,84.03
2019-02-26T02:16:36.960Z,84.34
2019-02-26T02:17:38.269Z,84.03
2019-02-26T02:18:36.977Z,84.03
2019-02-26T02:19:36.916Z,84.34
2019-02-26T02:20:36.902Z,84.23
2019-02-26T02:21:36.915Z,84.03
2019-02-26T02:22:37.674Z,84.27
2019-02-26T02:23:36.883Z,84.44
2019-02-26T02:24:39.231Z,84.69
2019-02-26T02:25:38.751Z,84.80
2019-02-26T02:26:36.837Z,85.00
2019-02-26T02:27:36.833Z,85.00
2019-02-26T02:28:36.821Z,84.80
2019-02-26T02:29:36.803Z,85.42
2019-02-26T02:30:39.056Z,85.52
2019-02-26T02:31:37.835Z,85.63
2019-02-26T02:32:36.779Z,85.52
2019-02-26T02:33:37.539Z,85.42
2019-02-26T02:34:39.895Z,85.38
2019-02-26T02:35:38.034Z,85.38
2019-02-26T02:36:36.734Z,85.06
2019-02-26T02:37:36.738Z,85.44
2019-02-26T02:38:37.258Z,84.61
2019-02-26T02:39:36.717Z,84.51
2019-02-26T02:40:39.889Z,84.92
2019-02-26T02:41:39.140Z,84.61
2019-02-26T02:42:37.720Z,84.30
2019-02-26T02:43:36.660Z,84.20
2019-02-26T02:44:36.656Z,84.09
2019-02-26T02:45:36.640Z,83.99
2019-02-26T02:46:39.168Z,84.05
2019-02-26T02:47:38.708Z,83.95
2019-02-26T02:48:36.623Z,84.16
2019-02-26T02:49:39.316Z,83.99
2019-02-26T02:50:36.604Z,84.20
2019-02-26T02:51:39.448Z,83.68
2019-02-26T02:52:37.925Z,83.92
2019-02-26T02:53:36.587Z,83.51
2019-02-26T02:54:38.599Z,83.92
2019-02-26T02:55:37.923Z,84.55
2019-02-26T02:56:39.171Z,85.06
2019-02-26T02:57:36.501Z,85.24
2019-02-26T02:58:38.407Z,85.34
2019-02-26T02:59:37.364Z,85.44
2019-02-26T03:00:36.468Z,85.44
2019-02-26T03:01:36.462Z,85.10
2019-02-26T03:02:40.470Z,85.10
2019-02-26T03:03:37.439Z,85.10
2019-02-26T03:04:36.459Z,84.89
2019-02-26T03:05:38.029Z,84.68
2019-02-26T03:06:38.715Z,84.78
2019-02-26T03:07:36.398Z,84.64
2019-02-26T03:08:36.401Z,84.58
2019-02-26T03:09:37.853Z,84.37
2019-02-26T03:10:39.016Z,84.37
2019-02-26T03:11:41.121Z,84.99
2019-02-26T03:12:37.357Z,84.58
2019-02-26T03:13:36.342Z,84.37
2019-02-26T03:14:39.203Z,84.33
2019-02-26T03:15:37.307Z,84.16
2019-02-26T03:16:36.306Z,84.27
2019-02-26T03:17:36.322Z,83.95
2019-02-26T03:18:36.271Z,84.20
2019-02-26T03:19:38.477Z,84.16
2019-02-26T03:20:39.922Z,84.30
2019-02-26T03:21:36.239Z,84.41
2019-02-26T03:22:38.896Z,84.65
2019-02-26T03:23:40.389Z,84.65
2019-02-26T03:24:37.206Z,84.75
2019-02-26T03:25:36.194Z,84.90
2019-02-26T03:26:36.200Z,84.69
2019-02-26T03:27:36.816Z,85.31
2019-02-26T03:28:37.516Z,84.80
2019-02-26T03:29:36.211Z,84.63
2019-02-26T03:30:40.518Z,84.83
2019-02-26T03:31:41.079Z,85.14
2019-02-26T03:32:41.477Z,85.67
2019-02-26T03:33:37.111Z,85.88
2019-02-26T03:34:36.099Z,85.77
2019-02-26T03:35:36.142Z,86.12
2019-02-26T03:36:38.268Z,86.22
2019-02-26T03:37:36.597Z,86.85
2019-02-26T03:38:36.061Z,87.27
2019-02-26T03:39:36.048Z,87.37
2019-02-26T03:40:36.274Z,87.99
2019-02-26T03:41:36.083Z,88.06
2019-02-26T03:42:38.480Z,87.89
2019-02-26T03:43:37.071Z,87.85
2019-02-26T03:44:35.988Z,88.27
2019-02-26T03:45:35.986Z,87.75
2019-02-26T03:46:35.967Z,87.96
2019-02-26T03:47:40.014Z,87.92
2019-02-26T03:48:35.966Z,87.65
2019-02-26T03:49:35.947Z,87.02
2019-02-26T03:50:35.921Z,86.88
2019-02-26T03:51:39.171Z,86.77
2019-02-26T03:52:35.902Z,86.46
2019-02-26T03:53:37.040Z,86.57
2019-02-26T03:54:37.852Z,86.57
2019-02-26T03:55:36.693Z,86.46
2019-02-26T03:56:35.864Z,86.25
2019-02-26T03:57:41.089Z,86.35
2019-02-26T03:58:36.890Z,86.25
2019-02-26T03:59:35.849Z,86.57
2019-02-26T04:00:38.599Z,86.57
2019-02-26T04:01:36.815Z,86.25
2019-02-26T04:02:37.451Z,86.67
2019-02-26T04:03:37.620Z,86.57
2019-02-26T04:04:35.819Z,86.98
2019-02-26T04:05:35.766Z,86.57
2019-02-26T04:06:36.616Z,86.15
2019-02-26T04:07:36.140Z,86.19
2019-02-26T04:08:35.753Z,85.94
2019-02-26T04:09:39.091Z,85.56
2019-02-26T04:10:36.745Z,85.98
2019-02-26T04:11:35.701Z,86.08
2019-02-26T04:12:39.222Z,85.88
2019-02-26T04:13:36.697Z,86.08
2019-02-26T04:14:35.664Z,86.22
2019-02-26T04:15:38.215Z,86.43
2019-02-26T04:16:37.785Z,86.85
2019-02-26T04:17:36.964Z,86.96
2019-02-26T04:18:35.621Z,86.96
2019-02-26T04:19:35.633Z,87.30
2019-02-26T04:20:35.608Z,87.10
2019-02-26T04:21:35.595Z,86.79
2019-02-26T04:22:35.629Z,86.89
2019-02-26T04:23:36.689Z,86.68
2019-02-26T04:24:38.039Z,86.89
2019-02-26T04:25:36.577Z,86.93
2019-02-26T04:26:35.556Z,87.04
2019-02-26T04:27:36.318Z,87.04
2019-02-26T04:28:37.116Z,87.04
2019-02-26T04:29:37.634Z,87.35
2019-02-26T04:30:39.008Z,87.14
2019-02-26T04:31:35.489Z,87.04
2019-02-26T04:32:38.114Z,87.39
2019-02-26T04:33:36.484Z,87.60
2019-02-26T04:34:35.539Z,87.60
2019-02-26T04:35:35.444Z,88.01
2019-02-26T04:36:37.821Z,88.12
2019-02-26T04:37:38.292Z,87.91
2019-02-26T04:38:35.402Z,87.76
2019-02-26T04:39:36.857Z,87.81
2019-02-26T04:40:36.347Z,87.81
2019-02-26T04:41:35.373Z,87.66
2019-02-26T04:42:37.737Z,88.43
2019-02-26T04:43:36.270Z,88.22
2019-02-26T04:44:35.383Z,88.39
2019-02-26T04:45:35.338Z,88.18
2019-02-26T04:46:36.900Z,87.49
2019-02-26T04:47:35.306Z,87.97
2019-02-26T04:48:35.301Z,87.70
2019-02-26T04:49:36.768Z,87.76
2019-02-26T04:50:38.469Z,88.32
2019-02-26T04:51:36.301Z,88.29
2019-02-26T04:52:37.760Z,88.64
2019-02-26T04:53:36.454Z,87.70
2019-02-26T04:54:36.812Z,87.49
2019-02-26T04:55:36.143Z,87.49
2019-02-26T04:56:37.090Z,87.81
2019-02-26T04:57:39.443Z,88.85
2019-02-26T04:58:37.228Z,89.89
2019-02-26T04:59:38.001Z,89.89
2019-02-26T05:00:38.589Z,89.37
2019-02-26T05:01:35.171Z,88.75
2019-02-26T05:02:35.189Z,89.06
2019-02-26T05:03:35.139Z,89.37
2019-02-26T05:04:36.863Z,88.64
2019-02-26T05:05:37.135Z,88.43
2019-02-26T05:06:35.103Z,88.43
2019-02-26T05:07:37.745Z,87.95
2019-02-26T05:08:37.662Z,87.70
2019-02-26T05:09:35.520Z,87.84
2019-02-26T05:10:35.190Z,88.16
2019-02-26T05:11:40.248Z,87.91
2019-02-26T05:12:37.938Z,87.74
2019-02-26T05:13:35.127Z,87.84
2019-02-26T05:14:35.028Z,87.84
2019-02-26T05:15:35.017Z,87.84
2019-02-26T05:16:37.053Z,88.47
2019-02-26T05:17:35.092Z,88.47
2019-02-26T05:18:35.164Z,89.41
2019-02-26T05:19:36.472Z,88.89
2019-02-26T05:20:36.791Z,89.31
2019-02-26T05:21:36.190Z,89.41
2019-02-26T05:22:35.137Z,89.72
2019-02-26T05:23:34.948Z,89.62
2019-02-26T05:24:34.912Z,89.62
2019-02-26T05:25:36.877Z,89.41
2019-02-26T05:26:34.914Z,89.51
2019-02-26T05:27:36.381Z,89.41
2019-02-26T05:28:37.687Z,89.41
2019-02-26T05:29:35.864Z,89.31
2019-02-26T05:30:34.838Z,89.41
2019-02-26T05:31:35.861Z,89.51
2019-02-26T05:32:35.537Z,89.20
2019-02-26T05:33:34.812Z,89.41
2019-02-26T05:34:34.868Z,89.20
2019-02-26T05:35:34.791Z,89.51
2019-02-26T05:36:37.274Z,89.14
2019-02-26T05:37:37.329Z,89.87
2019-02-26T05:38:35.725Z,89.66
2019-02-26T05:39:34.793Z,90.03
2019-02-26T05:40:37.423Z,91.18
2019-02-26T05:41:34.730Z,90.77
2019-02-26T05:42:34.739Z,90.77
2019-02-26T05:43:34.752Z,90.83
2019-02-26T05:44:34.693Z,90.72
2019-02-26T05:45:35.639Z,90.10
2019-02-26T05:46:34.722Z,89.51
2019-02-26T05:47:34.657Z,89.20
2019-02-26T05:48:34.666Z,89.51
2019-02-26T05:49:37.739Z,89.10
2019-02-26T05:50:38.584Z,89.10
2019-02-26T05:51:38.032Z,88.99
2019-02-26T05:52:35.860Z,89.62
2019-02-26T05:53:34.597Z,89.66
2019-02-26T05:54:34.580Z,89.31
2019-02-26T05:55:34.566Z,89.34
2019-02-26T05:56:36.985Z,89.66
2019-02-26T05:57:34.585Z,90.81
2019-02-26T05:58:36.281Z,90.87
2019-02-26T05:59:34.531Z,91.60
2019-02-26T06:00:34.518Z,91.81
2019-02-26T06:01:34.507Z,91.66
2019-02-26T06:02:36.672Z,90.93
2019-02-26T06:03:34.534Z,91.25
2019-02-26T06:04:35.242Z,91.35
2019-02-26T06:05:34.473Z,91.14
2019-02-26T06:06:34.448Z,91.04
2019-02-26T06:07:36.771Z,90.89
2019-02-26T06:08:36.331Z,90.79
2019-02-26T06:09:34.476Z,90.16
2019-02-26T06:10:34.428Z,89.75
2019-02-26T06:11:36.807Z,88.66
2019-02-26T06:12:35.587Z,89.29
2019-02-26T06:13:37.185Z,88.35
2019-02-26T06:14:36.265Z,87.62
2019-02-26T06:15:34.402Z,87.73
2019-02-26T06:16:34.341Z,87.73
2019-02-26T06:17:35.197Z,87.93
2019-02-26T06:18:34.329Z,87.83
2019-02-26T06:19:37.227Z,87.87
2019-02-26T06:20:36.546Z,87.55
2019-02-26T06:21:34.334Z,88.35
2019-02-26T06:22:34.664Z,88.14
2019-02-26T06:23:36.489Z,88.24
2019-02-26T06:24:35.740Z,87.97
2019-02-26T06:25:34.242Z,88.24
2019-02-26T06:26:36.073Z,88.24
2019-02-26T06:27:34.251Z,88.45
2019-02-26T06:28:38.060Z,88.56
2019-02-26T06:29:35.013Z,88.14
2019-02-26T06:30:34.228Z,87.58
2019-02-26T06:31:34.210Z,87.68
2019-02-26T06:32:35.197Z,87.48
2019-02-26T06:33:36.254Z,87.68
2019-02-26T06:34:34.149Z,87.43
2019-02-26T06:35:35.894Z,87.75
2019-02-26T06:36:34.161Z,87.65
2019-02-26T06:37:35.922Z,87.33
2019-02-26T06:38:35.055Z,87.54
2019-02-26T06:39:36.225Z,87.19
2019-02-26T06:40:36.757Z,86.98
2019-02-26T06:41:34.075Z,86.88
2019-02-26T06:42:35.556Z,86.88
2019-02-26T06:43:37.463Z,86.46
2019-02-26T06:44:34.037Z,86.57
2019-02-26T06:45:35.591Z,86.52
2019-02-26T06:46:35.782Z,86.15
2019-02-26T06:47:34.004Z,86.11
2019-02-26T06:48:34.000Z,85.80
2019-02-26T06:49:34.001Z,85.80
2019-02-26T06:50:36.260Z,85.73
2019-02-26T06:51:34.019Z,85.80
2019-02-26T06:52:37.120Z,85.49
2019-02-26T06:53:33.945Z,85.83
2019-02-26T06:54:33.927Z,85.31
2019-02-26T06:55:33.934Z,85.52
2019-02-26T06:56:36.849Z,85.52
2019-02-26T06:57:34.935Z,85.49
2019-02-26T06:58:35.350Z,85.42
2019-02-26T06:59:34.939Z,85.52
2019-02-26T07:00:33.864Z,85.83
2019-02-26T07:01:35.260Z,86.15
2019-02-26T07:02:33.862Z,86.57
2019-02-26T07:03:33.869Z,86.15
2019-02-26T07:04:33.818Z,86.15
2019-02-26T07:05:33.811Z,86.25
2019-02-26T07:06:34.914Z,86.67
2019-02-26T07:07:33.794Z,86.67
2019-02-26T07:08:33.821Z,86.60
2019-02-26T07:09:34.582Z,86.46
2019-02-26T07:10:33.811Z,86.04
2019-02-26T07:11:36.085Z,86.29
2019-02-26T07:12:33.731Z,86.29
2019-02-26T07:13:34.302Z,86.29
2019-02-26T07:14:34.522Z,86.60
2019-02-26T07:15:33.744Z,86.50
2019-02-26T07:16:33.691Z,86.50
2019-02-26T07:17:35.772Z,86.71
2019-02-26T07:18:33.672Z,87.23
2019-02-26T07:19:35.646Z,87.23
2019-02-26T07:20:34.327Z,87.02
2019-02-26T07:21:33.839Z,87.65
2019-02-26T07:22:33.623Z,87.65
2019-02-26T07:23:35.056Z,87.43
2019-02-26T07:24:33.603Z,87.43
2019-02-26T07:25:36.225Z,87.23
2019-02-26T07:26:33.609Z,87.08
2019-02-26T07:27:35.608Z,87.54
2019-02-26T07:28:33.568Z,87.29
2019-02-26T07:29:37.549Z,87.60
2019-02-26T07:30:35.285Z,87.40
2019-02-26T07:31:35.518Z,87.50
2019-02-26T07:32:33.559Z,87.81
2019-02-26T07:33:35.122Z,87.35
2019-02-26T07:34:33.504Z,87.35
2019-02-26T07:35:35.081Z,87.46
2019-02-26T07:36:33.507Z,87.15
2019-02-26T07:37:35.748Z,86.49
2019-02-26T07:38:40.899Z,86.59
2019-02-26T07:39:34.486Z,86.59
2019-02-26T07:40:35.369Z,86.73
2019-02-26T07:41:33.416Z,86.49
2019-02-26T07:42:35.037Z,86.65
2019-02-26T07:43:36.672Z,86.65
2019-02-26T07:44:34.402Z,86.69
2019-02-26T07:45:33.606Z,86.44
2019-02-26T07:46:35.451Z,86.76
2019-02-26T07:47:34.328Z,87.03
2019-02-26T07:48:33.699Z,86.61
2019-02-26T07:49:33.333Z,85.88
2019-02-26T07:50:37.458Z,85.53
2019-02-26T07:51:36.390Z,85.26
2019-02-26T07:52:33.297Z,85.74
2019-02-26T07:53:33.286Z,86.47
2019-02-26T07:54:33.274Z,86.57
2019-02-26T07:55:35.280Z,87.16
2019-02-26T07:56:33.262Z,87.68
2019-02-26T07:57:33.293Z,87.47
2019-02-26T07:58:35.848Z,87.37
2019-02-26T07:59:34.847Z,86.95
2019-02-26T08:00:36.997Z,86.54
2019-02-26T08:01:33.197Z,86.08
2019-02-26T08:02:34.977Z,85.87
2019-02-26T08:03:33.222Z,86.08
2019-02-26T08:04:34.524Z,85.87
2019-02-26T08:05:33.164Z,85.87
2019-02-26T08:06:33.967Z,85.97
2019-02-26T08:07:33.127Z,86.08
2019-02-26T08:08:33.135Z,85.63
2019-02-26T08:09:33.156Z,85.00
2019-02-26T08:10:35.182Z,85.11
2019-02-26T08:11:36.230Z,85.00
2019-02-26T08:12:35.575Z,84.86
2019-02-26T08:13:34.000Z,84.96
2019-02-26T08:14:33.069Z,84.13
2019-02-26T08:15:35.144Z,84.41
2019-02-26T08:16:33.031Z,84.09
2019-02-26T08:17:33.022Z,83.58
2019-02-26T08:18:33.031Z,83.23
2019-02-26T08:19:34.951Z,83.85
2019-02-26T08:20:35.156Z,83.44
2019-02-26T08:21:33.023Z,83.40
2019-02-26T08:22:34.591Z,82.36
2019-02-26T08:23:32.951Z,82.22
2019-02-26T08:24:32.942Z,82.32
2019-02-26T08:25:32.931Z,82.95
2019-02-26T08:26:32.935Z,82.64
2019-02-26T08:27:35.189Z,83.01
2019-02-26T08:28:32.896Z,82.60
2019-02-26T08:29:34.276Z,82.29
2019-02-26T08:30:32.874Z,83.59
2019-02-26T08:31:32.868Z,83.18
2019-02-26T08:32:32.864Z,82.66
2019-02-26T08:33:32.878Z,82.10
2019-02-26T08:34:32.840Z,82.21
2019-02-26T08:35:32.820Z,81.90
2019-02-26T08:36:32.813Z,81.90
2019-02-26T08:37:32.799Z,81.56
2019-02-26T08:38:32.804Z,82.03
2019-02-26T08:39:32.855Z,80.90
2019-02-26T08:40:32.766Z,81.10
2019-02-26T08:41:32.755Z,80.90
2019-02-26T08:42:32.744Z,80.69
2019-02-26T08:43:32.734Z,80.65
2019-02-26T08:44:32.720Z,80.44
2019-02-26T08:45:32.765Z,80.41
2019-02-26T08:46:32.728Z,79.48
2019-02-26T08:47:32.688Z,80.06
2019-02-26T08:48:32.676Z,78.93
2019-02-26T08:49:32.667Z,78.38
2019-02-26T08:50:33.289Z,79.79
2019-02-26T08:51:32.873Z,80.09
2019-02-26T08:52:32.637Z,80.19
2019-02-26T08:53:32.635Z,80.47
2019-02-26T08:54:33.324Z,79.95
2019-02-26T08:55:32.602Z,79.85
2019-02-26T08:56:35.826Z,79.61
2019-02-26T08:57:32.665Z,79.95
2019-02-26T08:58:32.568Z,78.99
2019-02-26T08:59:32.577Z,78.58
2019-02-26T09:00:34.218Z,77.65
2019-02-26T09:01:32.540Z,78.17
2019-02-26T09:02:32.523Z,77.65
2019-02-26T09:03:40.400Z,77.45
2019-02-26T09:04:35.249Z,77.96
2019-02-26T09:05:34.494Z,77.24
2019-02-26T09:06:32.480Z,76.31
2019-02-26T09:07:32.477Z,76.42
2019-02-26T09:08:33.062Z,75.73
2019-02-26T09:09:32.871Z,75.80
2019-02-26T09:10:32.439Z,75.84
2019-02-26T09:11:33.904Z,76.45
2019-02-26T09:12:32.414Z,77.14
2019-02-26T09:13:35.700Z,76.62
2019-02-26T09:14:37.151Z,76.21
2019-02-26T09:15:33.562Z,75.80
2019-02-26T09:16:32.818Z,76.07
2019-02-26T09:17:34.302Z,75.70
2019-02-26T09:18:35.500Z,76.28
2019-02-26T09:19:35.472Z,76.79
2019-02-26T09:20:32.326Z,77.00
2019-02-26T09:21:34.643Z,77.51
2019-02-26T09:22:32.308Z,78.50
2019-02-26T09:23:32.860Z,77.03
2019-02-26T09:24:32.290Z,76.35
2019-02-26T09:25:33.914Z,76.82
2019-02-26T09:26:32.262Z,77.03
2019-02-26T09:27:35.097Z,77.10
2019-02-26T09:28:33.236Z,76.68
2019-02-26T09:29:34.142Z,76.07
2019-02-26T09:30:33.936Z,73.47
2019-02-26T09:31:32.202Z,71.93
2019-02-26T09:32:32.728Z,71.72
2019-02-26T09:33:33.024Z,70.87
2019-02-26T09:34:34.101Z,70.36
2019-02-26T09:35:33.096Z,69.95
2019-02-26T09:36:32.149Z,68.99
2019-02-26T09:37:32.141Z,68.48
2019-02-26T09:38:32.122Z,68.96
2019-02-26T09:39:33.891Z,67.83
2019-02-26T09:40:34.259Z,67.63
2019-02-26T09:41:33.799Z,67.73
2019-02-26T09:42:32.485Z,66.47
2019-02-26T09:43:32.071Z,66.78
2019-02-26T09:44:33.978Z,66.13
2019-02-26T09:45:32.131Z,65.93
2019-02-26T09:46:35.839Z,65.31
2019-02-26T09:47:33.452Z,65.52
2019-02-26T09:48:33.626Z,67.46
2019-02-26T09:49:33.721Z,64.57
2019-02-26T09:50:31.991Z,64.36
2019-02-26T09:51:33.000Z,63.34
2019-02-26T09:52:32.726Z,63.51
2019-02-26T09:53:31.954Z,61.19
2019-02-26T09:54:31.951Z,60.37
2019-02-26T09:55:31.939Z,60.55
2019-02-26T09:56:31.928Z,61.16
2019-02-26T09:57:31.953Z,60.14
2019-02-26T09:58:31.898Z,59.73
2019-02-26T09:59:33.537Z,60.72
2019-02-26T10:00:31.881Z,59.60
2019-02-26T10:01:33.693Z,59.27
2019-02-26T10:02:31.855Z,59.06
2019-02-26T10:03:35.678Z,60.77
2019-02-26T10:04:32.829Z,61.49
2019-02-26T10:05:31.821Z,59.75
2019-02-26T10:06:31.811Z,60.05
2019-02-26T10:07:35.539Z,61.05
2019-02-26T10:08:31.798Z,61.25
2019-02-26T10:09:34.681Z,59.82
2019-02-26T10:10:33.683Z,59.72
2019-02-26T10:11:31.758Z,59.92
2019-02-26T10:12:32.269Z,57.98
2019-02-26T10:13:31.734Z,58.67
2019-02-26T10:14:33.430Z,57.45
2019-02-26T10:15:32.309Z,58.87
2019-02-26T10:16:33.036Z,59.66
2019-02-26T10:17:33.315Z,59.66
2019-02-26T10:18:32.929Z,59.77
2019-02-26T10:19:33.752Z,59.97
2019-02-26T10:20:31.947Z,59.64
2019-02-26T10:21:33.097Z,60.66
2019-02-26T10:22:33.284Z,60.96
2019-02-26T10:23:33.014Z,60.93
2019-02-26T10:24:33.029Z,61.57
2019-02-26T10:25:34.441Z,62.56
2019-02-26T10:26:33.513Z,61.24
2019-02-26T10:27:35.691Z,62.26
2019-02-26T10:28:35.160Z,60.93
2019-02-26T10:29:35.013Z,62.36
2019-02-26T10:30:33.993Z,62.43
2019-02-26T10:31:31.552Z,61.31
2019-02-26T10:32:32.805Z,61.82
2019-02-26T10:33:35.969Z,61.11
2019-02-26T10:34:32.500Z,60.80
2019-02-26T10:35:33.522Z,60.60
2019-02-26T10:36:34.745Z,60.50
2019-02-26T10:37:33.757Z,60.68
2019-02-26T10:38:33.651Z,59.45
2019-02-26T10:39:32.206Z,59.75
2019-02-26T10:40:35.650Z,60.47
2019-02-26T10:41:34.234Z,60.24
2019-02-26T10:42:39.626Z,59.53
2019-02-26T10:43:32.426Z,59.53
2019-02-26T10:44:31.425Z,59.73
2019-02-26T10:45:35.994Z,59.42
2019-02-26T10:46:34.510Z,59.73
2019-02-26T10:47:32.745Z,59.80
2019-02-26T10:48:31.344Z,59.39
2019-02-26T10:49:31.359Z,59.47
2019-02-26T10:50:32.141Z,59.60
2019-02-26T10:51:31.363Z,58.65
2019-02-26T10:52:31.305Z,59.57
2019-02-26T10:53:31.298Z,59.27
2019-02-26T10:54:35.481Z,58.76
2019-02-26T10:55:38.440Z,58.73
2019-02-26T10:56:36.796Z,57.51
2019-02-26T10:57:34.264Z,57.31
2019-02-26T10:58:31.234Z,57.61
2019-02-26T10:59:31.232Z,58.22
2019-02-26T11:00:34.710Z,57.21
2019-02-26T11:01:33.617Z,56.98
2019-02-26T11:02:31.274Z,57.41
2019-02-26T11:03:35.478Z,57.99
2019-02-26T11:04:35.603Z,57.18
2019-02-26T11:05:31.165Z,56.98
2019-02-26T11:06:33.206Z,57.48
2019-02-26T11:07:32.456Z,56.54
2019-02-26T11:08:32.795Z,55.53
2019-02-26T11:09:31.966Z,54.51
2019-02-26T11:10:31.102Z,55.83
2019-02-26T11:11:32.861Z,56.54
2019-02-26T11:12:33.984Z,56.13
2019-02-26T11:13:31.070Z,56.13
2019-02-26T11:14:33.444Z,55.73
2019-02-26T11:15:33.893Z,55.93
2019-02-26T11:16:32.972Z,55.71
2019-02-26T11:17:31.622Z,56.21
2019-02-26T11:18:31.007Z,54.57
2019-02-26T11:19:35.233Z,55.88
2019-02-26T11:20:34.100Z,55.88
2019-02-26T11:21:30.978Z,55.76
2019-02-26T11:22:30.971Z,54.74
2019-02-26T11:23:33.390Z,54.64
2019-02-26T11:24:33.504Z,54.31
2019-02-26T11:25:30.931Z,54.71
2019-02-26T11:26:32.470Z,54.11
2019-02-26T11:27:30.915Z,54.71
2019-02-26T11:28:33.340Z,55.83
2019-02-26T11:29:33.981Z,55.32
2019-02-26T11:30:32.172Z,55.52
2019-02-26T11:31:30.860Z,56.23
2019-02-26T11:32:32.627Z,55.22
2019-02-26T11:33:31.848Z,55.32
2019-02-26T11:34:33.356Z,55.22
2019-02-26T11:35:30.818Z,55.73
2019-02-26T11:36:32.956Z,55.63
2019-02-26T11:37:32.092Z,55.80
2019-02-26T11:38:30.819Z,55.80
2019-02-26T11:39:30.774Z,55.80
2019-02-26T11:40:30.870Z,55.80
2019-02-26T11:41:31.896Z,55.30
2019-02-26T11:42:30.743Z,55.47
2019-02-26T11:43:30.728Z,54.56
2019-02-26T11:44:30.771Z,53.85
2019-02-26T11:45:32.845Z,55.07
2019-02-26T11:46:34.334Z,54.76
2019-02-26T11:47:32.811Z,55.27
2019-02-26T11:48:32.853Z,55.27
2019-02-26T11:49:31.201Z,55.04
2019-02-26T11:50:30.693Z,54.44
2019-02-26T11:51:37.163Z,55.88
2019-02-26T11:52:33.793Z,55.35
2019-02-26T11:53:30.621Z,55.04
2019-02-26T11:54:32.684Z,54.71
2019-02-26T11:55:32.422Z,53.70
2019-02-26T11:56:30.622Z,53.90
2019-02-26T11:57:34.923Z,54.61
2019-02-26T11:58:31.554Z,55.82
2019-02-26T11:59:31.620Z,55.42
2019-02-26T12:00:33.874Z,54.71
2019-02-26T12:01:32.175Z,54.05
2019-02-26T12:02:33.788Z,53.47
2019-02-26T12:03:33.351Z,52.87
2019-02-26T12:04:31.491Z,52.76
2019-02-26T12:05:33.445Z,52.23
2019-02-26T12:06:31.488Z,52.64
2019-02-26T12:07:32.282Z,52.64
2019-02-26T12:08:30.445Z,52.44
2019-02-26T12:09:32.930Z,51.12
2019-02-26T12:10:32.424Z,52.01
2019-02-26T12:11:30.426Z,51.91
2019-02-26T12:12:31.148Z,52.82
2019-02-26T12:13:30.431Z,50.39
2019-02-26T12:14:30.430Z,50.09
2019-02-26T12:15:32.788Z,50.09
2019-02-26T12:16:30.357Z,50.19
2019-02-26T12:17:30.346Z,50.19
2019-02-26T12:18:30.351Z,51.07
2019-02-26T12:19:31.178Z,49.96
2019-02-26T12:20:30.311Z,51.38
2019-02-26T12:21:32.218Z,50.09
2019-02-26T12:22:30.289Z,49.96
2019-02-26T12:23:30.280Z,51.18
2019-02-26T12:24:31.370Z,50.95
2019-02-26T12:25:30.301Z,50.75
2019-02-26T12:26:30.306Z,50.55
2019-02-26T12:27:30.235Z,49.31
2019-02-26T12:28:34.157Z,49.39
2019-02-26T12:29:30.215Z,48.18
2019-02-26T12:30:31.972Z,47.67
2019-02-26T12:31:31.802Z,47.45
2019-02-26T12:32:30.182Z,47.81
2019-02-26T12:33:32.439Z,45.78
2019-02-26T12:34:30.161Z,46.76
2019-02-26T12:35:33.191Z,45.95
2019-02-26T12:36:32.525Z,44.91
2019-02-26T12:37:30.179Z,44.38
2019-02-26T12:38:30.116Z,44.46
2019-02-26T12:39:31.356Z,44.24
2019-02-26T12:40:30.089Z,44.12
2019-02-26T12:41:32.427Z,43.19
2019-02-26T12:42:30.114Z,43.48
2019-02-26T12:43:30.795Z,43.27
2019-02-26T12:44:32.027Z,42.35
2019-02-26T12:45:31.787Z,41.43
2019-02-26T12:46:31.227Z,41.30
2019-02-26T12:47:30.031Z,39.67
2019-02-26T12:48:30.030Z,39.06
2019-02-26T12:49:32.609Z,39.26
2019-02-26T12:50:34.217Z,38.12
2019-02-26T12:51:31.924Z,38.42
2019-02-26T12:52:30.381Z,38.20